createdAt,value
2017-08-22T00:01:54.943Z,22.41
2017-08-22T00:04:03.753Z,22.76
2017-08-22T00:06:10.248Z,22.50
2017-08-22T00:08:17.186Z,22.92
2017-08-22T00:10:23.493Z,22.42
2017-08-22T00:12:31.066Z,21.84
2017-08-22T00:14:36.848Z,22.24
2017-08-22T00:16:43.513Z,21.80
2017-08-22T00:18:51.520Z,22.21
2017-08-22T00:20:58.786Z,21.85
2017-08-22T00:23:06.366Z,21.62
2017-08-22T00:25:12.546Z,21.46
2017-08-22T00:27:19.026Z,21.17
2017-08-22T00:29:25.497Z,21.36
2017-08-22T00:31:32.935Z,21.56
2017-08-22T00:33:39.010Z,21.86
2017-08-22T00:35:44.900Z,21.92
2017-08-22T00:37:50.564Z,22.20
2017-08-22T00:39:58.361Z,22.11
2017-08-22T00:42:06.619Z,21.64
2017-08-22T00:44:12.930Z,21.36
2017-08-22T00:46:19.100Z,21.54
2017-08-22T00:48:25.198Z,21.38
2017-08-22T00:50:31.539Z,21.24
2017-08-22T00:52:37.099Z,21.53
2017-08-22T00:54:44.152Z,21.60
2017-08-22T00:56:51.620Z,21.94
2017-08-22T00:58:58.143Z,21.62
2017-08-22T01:01:07.443Z,21.76
2017-08-22T01:03:14.013Z,22.43
2017-08-22T01:05:20.825Z,21.31
2017-08-22T01:07:27.011Z,21.73
2017-08-22T01:09:33.643Z,22.57
2017-08-22T01:11:39.735Z,22.23
2017-08-22T01:13:50.034Z,21.50
2017-08-22T01:15:57.006Z,22.11
2017-08-22T01:18:06.382Z,21.75
2017-08-22T01:20:12.454Z,21.63
2017-08-22T01:22:18.918Z,21.71
2017-08-22T01:24:25.918Z,21.65
2017-08-22T01:26:34.008Z,21.50
2017-08-22T01:28:40.823Z,21.36
2017-08-22T01:30:50.624Z,21.18
2017-08-22T01:32:56.592Z,20.56
2017-08-22T01:35:05.614Z,21.10
2017-08-22T01:37:11.866Z,20.95
2017-08-22T01:39:18.260Z,20.95
2017-08-22T01:41:24.496Z,20.71
2017-08-22T01:43:31.141Z,20.53
2017-08-22T01:45:37.312Z,20.58
2017-08-22T01:47:45.246Z,20.66
2017-08-22T01:49:53.497Z,20.26
2017-08-22T01:52:05.928Z,20.86
2017-08-22T01:54:12.127Z,21.06
2017-08-22T01:56:18.947Z,21.81
2017-08-22T01:58:25.315Z,21.28
2017-08-22T02:00:32.890Z,21.60
2017-08-22T02:02:38.927Z,21.71
2017-08-22T02:04:45.738Z,22.60
2017-08-22T02:06:53.981Z,20.84
2017-08-22T02:09:05.062Z,21.08
2017-08-22T02:11:11.033Z,21.19
2017-08-22T02:13:17.790Z,20.93
2017-08-22T02:15:23.924Z,20.65
2017-08-22T02:17:29.791Z,19.96
2017-08-22T02:19:36.369Z,20.72
2017-08-22T02:21:43.264Z,20.60
2017-08-22T02:23:50.067Z,20.49
2017-08-22T02:25:56.206Z,20.30
2017-08-22T02:28:06.549Z,20.28
2017-08-22T02:30:12.615Z,20.49
2017-08-22T02:32:32.992Z,20.53
2017-08-22T02:34:39.794Z,20.31
2017-08-22T02:39:27.556Z,20.69
2017-08-22T02:41:34.156Z,20.57
2017-08-22T02:43:40.184Z,20.28
2017-08-22T02:45:46.340Z,20.15
2017-08-22T02:47:54.993Z,20.38
2017-08-22T02:50:04.521Z,20.00
2017-08-22T02:52:11.457Z,20.56
2017-08-22T02:54:17.786Z,20.15
2017-08-22T02:56:24.317Z,20.30
2017-08-22T02:58:30.288Z,21.17
2017-08-22T03:00:35.832Z,21.45
2017-08-22T03:02:42.434Z,20.65
2017-08-22T03:04:48.294Z,20.88
2017-08-22T03:06:56.963Z,20.64
2017-08-22T03:09:07.167Z,21.00
2017-08-22T03:11:12.777Z,20.38
2017-08-22T03:13:18.927Z,20.44
2017-08-22T03:15:25.410Z,20.69
2017-08-22T03:17:31.606Z,20.91
2017-08-22T03:19:37.689Z,21.08
2017-08-22T03:21:44.359Z,20.62
2017-08-22T03:23:55.250Z,20.78
2017-08-22T03:26:05.423Z,20.27
2017-08-22T03:28:11.435Z,20.20
2017-08-22T03:30:17.986Z,20.03
2017-08-22T03:32:23.763Z,19.76
2017-08-22T03:34:30.426Z,19.80
2017-08-22T03:36:36.962Z,19.37
2017-08-22T03:38:47.834Z,19.52
2017-08-22T03:40:57.549Z,19.49
2017-08-22T03:43:07.666Z,19.70
2017-08-22T03:45:13.580Z,20.03
2017-08-22T03:47:19.822Z,20.08
2017-08-22T03:49:25.959Z,19.91
2017-08-22T03:51:32.663Z,19.83
2017-08-22T03:53:38.830Z,19.96
2017-08-22T03:55:46.455Z,19.40
2017-08-22T03:57:54.403Z,19.76
2017-08-22T04:00:03.809Z,19.75
2017-08-22T04:02:10.229Z,19.93
2017-08-22T04:04:16.259Z,19.57
2017-08-22T04:06:21.923Z,19.49
2017-08-22T04:08:28.846Z,19.51
2017-08-22T04:10:35.686Z,19.37
2017-08-22T04:12:45.896Z,19.24
2017-08-22T04:14:55.003Z,19.50
2017-08-22T04:17:03.796Z,19.60
2017-08-22T04:19:12.453Z,19.52
2017-08-22T04:21:18.309Z,19.29
2017-08-22T04:23:23.998Z,19.44
2017-08-22T04:25:29.990Z,19.20
2017-08-22T04:27:36.412Z,19.21
2017-08-22T04:29:42.988Z,19.22
2017-08-22T04:31:50.801Z,19.20
2017-08-22T04:33:59.525Z,19.05
2017-08-22T04:36:08.406Z,19.00
2017-08-22T04:38:14.471Z,19.10
2017-08-22T04:40:20.655Z,19.12
2017-08-22T04:42:26.629Z,18.96
2017-08-22T04:44:33.467Z,19.24
2017-08-22T04:46:39.404Z,19.07
2017-08-22T04:48:45.576Z,19.31
2017-08-22T04:50:51.602Z,18.89
2017-08-22T04:52:58.087Z,19.15
2017-08-22T04:55:07.667Z,19.40
2017-08-22T04:57:14.404Z,19.75
2017-08-22T04:59:20.658Z,19.09
2017-08-22T05:01:26.729Z,19.16
2017-08-22T05:03:32.823Z,18.95
2017-08-22T05:05:38.733Z,19.40
2017-08-22T05:07:45.789Z,19.10
2017-08-22T05:09:53.810Z,19.29
2017-08-22T05:12:06.260Z,19.15
2017-08-22T05:14:13.650Z,19.05
2017-08-22T05:16:20.629Z,19.35
2017-08-22T05:18:31.027Z,19.26
2017-08-22T05:20:37.433Z,19.11
2017-08-22T05:22:46.289Z,18.93
2017-08-22T05:24:55.401Z,19.28
2017-08-22T05:27:03.254Z,19.30
2017-08-22T05:29:15.650Z,19.35
2017-08-22T05:31:23.118Z,19.35
2017-08-22T05:33:30.131Z,19.88
2017-08-22T05:35:36.529Z,19.82
2017-08-22T05:37:42.138Z,19.47
2017-08-22T05:39:49.585Z,19.72
2017-08-22T05:41:57.873Z,19.47
2017-08-22T05:44:06.391Z,19.85
2017-08-22T05:46:12.991Z,19.82
2017-08-22T05:48:18.749Z,19.69
2017-08-22T05:50:25.158Z,19.95
2017-08-22T05:52:31.207Z,19.65
2017-08-22T05:54:37.726Z,20.18
2017-08-22T05:56:45.482Z,20.28
2017-08-22T05:58:53.341Z,20.11
2017-08-22T06:01:04.266Z,20.21
2017-08-22T06:03:11.134Z,20.20
2017-08-22T06:05:17.452Z,20.16
2017-08-22T06:07:24.498Z,20.34
2017-08-22T06:09:30.276Z,20.45
2017-08-22T06:11:36.027Z,20.58
2017-08-22T06:13:42.659Z,20.43
2017-08-22T06:15:52.060Z,20.70
2017-08-22T06:18:02.482Z,20.77
2017-08-22T06:20:09.881Z,21.10
2017-08-22T06:22:15.572Z,20.71
2017-08-22T06:24:21.793Z,20.71
2017-08-22T06:26:28.550Z,20.88
2017-08-22T06:28:34.297Z,21.53
2017-08-22T06:30:41.147Z,20.88
2017-08-22T06:32:49.157Z,21.52
2017-08-22T06:34:55.670Z,21.74
2017-08-22T06:37:03.588Z,21.73
2017-08-22T06:39:10.043Z,21.43
2017-08-22T06:41:16.287Z,21.35
2017-08-22T06:43:25.915Z,21.23
2017-08-22T06:45:32.203Z,21.41
2017-08-22T06:47:40.356Z,21.64
2017-08-22T06:49:52.845Z,22.28
2017-08-22T06:52:06.608Z,21.92
2017-08-22T06:54:13.688Z,21.40
2017-08-22T06:56:25.477Z,21.56
2017-08-22T06:58:32.573Z,21.28
2017-08-22T07:00:38.786Z,21.20
2017-08-22T07:02:44.593Z,21.89
2017-08-22T07:04:52.461Z,21.40
2017-08-22T07:06:59.526Z,21.87
2017-08-22T07:09:17.244Z,21.49
2017-08-22T07:11:47.002Z,21.63
2017-08-22T07:13:54.711Z,22.14
2017-08-22T07:16:02.138Z,21.77
2017-08-22T07:18:08.989Z,22.02
2017-08-22T07:20:14.994Z,21.90
2017-08-22T07:22:20.685Z,21.72
2017-08-22T07:24:26.510Z,21.97
2017-08-22T07:26:33.435Z,22.03
2017-08-22T07:28:39.072Z,22.29
2017-08-22T07:30:50.602Z,21.92
2017-08-22T07:32:58.364Z,22.81
2017-08-22T07:35:07.647Z,22.54
2017-08-22T07:37:15.342Z,22.36
2017-08-22T07:39:22.054Z,22.48
2017-08-22T07:41:28.682Z,22.65
2017-08-22T07:43:36.813Z,22.88
2017-08-22T07:45:42.720Z,23.13
2017-08-22T07:47:50.093Z,23.17
2017-08-22T07:49:57.528Z,22.75
2017-08-22T07:52:06.066Z,22.54
2017-08-22T07:54:13.722Z,22.57
2017-08-22T07:56:19.306Z,22.93
2017-08-22T07:58:24.906Z,22.92
2017-08-22T08:00:31.050Z,23.20
2017-08-22T08:02:36.721Z,23.23
2017-08-22T08:04:47.002Z,22.83
2017-08-22T08:06:55.014Z,22.89
2017-08-22T08:09:06.376Z,22.80
2017-08-22T08:11:11.978Z,22.92
2017-08-22T08:13:19.464Z,23.02
2017-08-22T08:15:25.121Z,23.05
2017-08-22T08:17:30.804Z,23.01
2017-08-22T08:19:38.604Z,23.24
2017-08-22T08:21:45.924Z,23.19
2017-08-22T08:23:54.742Z,23.13
2017-08-22T08:26:07.548Z,23.43
2017-08-22T08:28:13.953Z,23.57
2017-08-22T08:30:19.777Z,23.59
2017-08-22T08:32:27.157Z,23.51
2017-08-22T08:34:33.995Z,23.60
2017-08-22T08:36:40.431Z,23.39
2017-08-22T08:39:50.011Z,23.88
2017-08-22T08:41:55.606Z,23.89
2017-08-22T08:44:05.350Z,23.77
2017-08-22T08:46:11.354Z,23.86
2017-08-22T08:48:18.964Z,23.81
2017-08-22T08:50:27.087Z,23.84
2017-08-22T08:52:32.872Z,24.19
2017-08-22T08:54:38.511Z,24.40
2017-08-22T08:56:48.509Z,23.94
2017-08-22T08:58:57.161Z,24.10
2017-08-22T09:01:06.619Z,23.77
2017-08-22T09:03:15.502Z,23.88
2017-08-22T09:05:22.373Z,23.74
2017-08-22T09:07:29.203Z,23.65
2017-08-22T09:09:36.317Z,24.06
2017-08-22T09:11:43.256Z,23.92
2017-08-22T09:13:49.742Z,23.59
2017-08-22T09:15:58.070Z,23.95
2017-08-22T09:18:07.813Z,23.95
2017-08-22T09:20:14.248Z,24.34
2017-08-22T09:22:20.385Z,24.05
2017-08-22T09:24:26.084Z,23.90
2017-08-22T09:26:31.712Z,23.95
2017-08-22T09:28:38.024Z,24.43
2017-08-22T09:30:46.000Z,23.91
2017-08-22T09:32:55.330Z,23.76
2017-08-22T09:35:06.821Z,24.27
2017-08-22T09:37:12.498Z,24.34
2017-08-22T09:39:18.145Z,24.88
2017-08-22T09:41:24.626Z,24.96
2017-08-22T09:43:31.033Z,25.32
2017-08-22T09:45:36.908Z,24.86
2017-08-22T09:47:43.960Z,24.55
2017-08-22T09:49:51.433Z,24.62
2017-08-22T09:51:59.278Z,24.98
2017-08-22T09:54:08.340Z,25.03
2017-08-22T09:56:14.536Z,24.62
2017-08-22T09:58:20.578Z,25.24
2017-08-22T10:00:27.788Z,25.54
2017-08-22T10:02:33.908Z,25.51
2017-08-22T10:04:39.736Z,24.96
2017-08-22T10:06:49.670Z,24.97
2017-08-22T10:08:56.419Z,25.33
2017-08-22T10:11:08.229Z,25.57
2017-08-22T10:13:14.433Z,25.51
2017-08-22T10:15:21.455Z,25.54
2017-08-22T10:17:27.465Z,25.12
2017-08-22T10:19:36.365Z,25.26
2017-08-22T10:21:43.981Z,25.20
2017-08-22T10:23:51.235Z,25.14
2017-08-22T10:25:59.862Z,25.24
2017-08-22T10:28:09.078Z,24.98
2017-08-22T10:30:32.501Z,24.60
2017-08-22T10:32:39.940Z,24.64
2017-08-22T10:34:47.734Z,24.93
2017-08-22T10:36:55.022Z,24.55
2017-08-22T10:39:04.408Z,25.29
2017-08-22T10:41:10.517Z,25.28
2017-08-22T10:43:16.609Z,25.20
2017-08-22T10:45:23.601Z,24.84
2017-08-22T10:47:29.297Z,24.66
2017-08-22T10:49:35.419Z,24.84
2017-08-22T10:51:44.060Z,25.14
2017-08-22T10:53:52.155Z,25.53
2017-08-22T10:56:05.458Z,25.75
2017-08-22T10:58:11.079Z,25.35
2017-08-22T11:00:16.708Z,25.25
2017-08-22T11:02:22.420Z,25.35
2017-08-22T11:04:30.037Z,25.00
2017-08-22T11:06:36.498Z,25.12
2017-08-22T11:08:43.760Z,25.16
2017-08-22T11:10:51.126Z,25.35
2017-08-22T11:12:58.867Z,25.42
2017-08-22T11:15:08.984Z,25.15
2017-08-22T11:17:15.928Z,25.59
2017-08-22T11:19:21.775Z,25.90
2017-08-22T11:21:27.719Z,26.29
2017-08-22T11:23:34.108Z,25.90
2017-08-22T11:25:40.710Z,26.24
2017-08-22T11:27:55.649Z,26.23
2017-08-22T11:30:21.214Z,26.07
2017-08-22T11:32:30.225Z,25.97
2017-08-22T11:34:46.128Z,25.92
2017-08-22T11:37:04.315Z,26.41
2017-08-22T11:39:11.834Z,26.52
2017-08-22T11:41:22.174Z,26.54
2017-08-22T11:43:28.777Z,26.50
2017-08-22T11:45:35.926Z,26.10
2017-08-22T11:48:12.690Z,26.47
2017-08-22T11:50:29.973Z,26.78
2017-08-22T11:52:37.269Z,26.61
2017-08-22T11:57:08.703Z,25.89
2017-08-22T11:59:14.966Z,26.39
2017-08-22T12:01:20.907Z,26.27
2017-08-22T12:03:26.961Z,26.49
2017-08-22T12:05:33.013Z,26.62
2017-08-22T12:07:38.912Z,26.54
2017-08-22T12:09:46.721Z,26.87
2017-08-22T12:11:53.669Z,26.93
2017-08-22T12:14:03.806Z,26.96
2017-08-22T12:16:09.771Z,27.39
2017-08-22T12:18:15.781Z,27.31
2017-08-22T12:20:21.719Z,27.66
2017-08-22T12:22:32.195Z,28.18
2017-08-22T12:24:38.128Z,28.22
2017-08-22T12:26:44.910Z,28.78
2017-08-22T12:28:51.939Z,28.94
2017-08-22T12:30:59.531Z,28.85
2017-08-22T12:33:08.343Z,28.54
2017-08-22T12:35:14.223Z,29.05
2017-08-22T12:37:20.219Z,29.49
2017-08-22T12:39:26.123Z,29.70
2017-08-22T12:41:33.124Z,29.82
2017-08-22T12:43:38.935Z,29.57
2017-08-22T12:45:48.815Z,28.71
2017-08-22T12:47:55.891Z,28.38
2017-08-22T12:50:06.085Z,28.60
2017-08-22T12:52:15.913Z,27.84
2017-08-22T12:54:22.821Z,27.84
2017-08-22T12:56:28.661Z,27.91
2017-08-22T12:58:34.296Z,29.42
2017-08-22T13:00:40.583Z,29.73
2017-08-22T13:02:51.719Z,30.18
2017-08-22T13:04:58.948Z,29.06
2017-08-22T13:07:09.180Z,28.33
2017-08-22T13:09:15.056Z,29.36
2017-08-22T13:11:20.631Z,30.25
2017-08-22T13:13:26.609Z,30.49
2017-08-22T13:15:36.631Z,30.78
2017-08-22T13:17:42.225Z,30.75
2017-08-22T13:19:49.699Z,30.85
2017-08-22T13:21:56.879Z,30.92
2017-08-22T13:24:07.167Z,31.02
2017-08-22T13:26:12.631Z,30.95
2017-08-22T13:28:18.886Z,31.28
2017-08-22T13:30:25.843Z,31.33
2017-08-22T13:32:32.635Z,30.75
2017-08-22T13:34:39.792Z,29.33
2017-08-22T13:36:46.536Z,29.72
2017-08-22T13:38:55.399Z,30.76
2017-08-22T13:41:14.634Z,31.32
2017-08-22T13:43:21.335Z,31.20
2017-08-22T13:45:27.219Z,31.26
2017-08-22T13:47:33.824Z,30.48
2017-08-22T13:49:39.836Z,30.33
2017-08-22T13:51:45.143Z,30.39
2017-08-22T13:53:50.614Z,30.89
2017-08-22T13:55:56.990Z,31.08
2017-08-22T13:58:06.869Z,31.42
2017-08-22T14:00:13.713Z,31.68
2017-08-22T14:02:20.547Z,31.66
2017-08-22T14:04:27.270Z,30.95
2017-08-22T14:06:32.984Z,30.68
2017-08-22T14:08:39.917Z,31.12
2017-08-22T14:10:47.139Z,29.91
2017-08-22T14:12:54.842Z,29.22
2017-08-22T14:15:03.634Z,28.90
2017-08-22T14:17:09.148Z,28.85
2017-08-22T14:19:14.779Z,28.52
2017-08-22T14:21:20.957Z,28.62
2017-08-22T14:23:27.079Z,28.74
2017-08-22T14:25:33.092Z,29.50
2017-08-22T14:27:38.735Z,29.69
2017-08-22T14:29:44.166Z,29.45
2017-08-22T14:31:49.791Z,28.89
2017-08-22T14:34:02.453Z,28.53
2017-08-22T14:36:12.241Z,28.51
2017-08-22T14:38:30.071Z,28.43
2017-08-22T14:40:39.482Z,29.00
2017-08-22T14:42:51.942Z,29.49
2017-08-22T14:44:58.417Z,29.65
2017-08-22T14:47:08.311Z,29.37
2017-08-22T14:49:14.874Z,29.45
2017-08-22T14:51:20.657Z,29.36
2017-08-22T14:53:26.986Z,29.18
2017-08-22T14:55:33.203Z,29.24
2017-08-22T14:57:39.412Z,29.24
2017-08-22T14:59:50.521Z,29.06
2017-08-22T15:02:04.632Z,29.26
2017-08-22T15:04:10.501Z,29.18
2017-08-22T15:06:16.743Z,29.35
2017-08-22T15:08:22.314Z,29.41
2017-08-22T15:10:28.062Z,29.06
2017-08-22T15:12:34.430Z,28.94
2017-08-22T15:14:40.219Z,28.81
2017-08-22T15:16:47.238Z,28.81
2017-08-22T15:18:55.166Z,28.85
2017-08-22T15:21:03.482Z,28.93
2017-08-22T15:23:09.241Z,29.16
2017-08-22T15:25:15.342Z,29.07
2017-08-22T15:27:21.033Z,28.95
2017-08-22T15:29:27.762Z,28.91
2017-08-22T15:31:33.948Z,28.65
2017-08-22T15:33:39.660Z,28.40
2017-08-22T15:35:46.296Z,28.11
2017-08-22T15:37:54.454Z,28.06
2017-08-22T15:40:03.456Z,27.75
2017-08-22T15:42:09.433Z,27.87
2017-08-22T15:44:16.431Z,27.85
2017-08-22T15:46:22.288Z,27.98
2017-08-22T15:48:28.178Z,28.01
2017-08-22T15:50:35.734Z,27.96
2017-08-22T15:52:41.154Z,27.74
2017-08-22T15:54:51.508Z,27.59
2017-08-22T15:57:08.092Z,27.37
2017-08-22T15:59:13.762Z,27.48
2017-08-22T16:01:19.223Z,27.58
2017-08-22T16:03:24.988Z,27.81
2017-08-22T16:05:30.878Z,27.97
2017-08-22T16:07:36.666Z,28.05
2017-08-22T16:09:42.754Z,28.01
2017-08-22T16:11:52.808Z,28.24
2017-08-22T16:13:59.368Z,27.97
2017-08-22T16:16:08.053Z,27.77
2017-08-22T16:18:13.916Z,27.81
2017-08-22T16:20:19.776Z,27.48
2017-08-22T16:22:26.469Z,27.68
2017-08-22T16:24:32.278Z,27.77
2017-08-22T16:26:39.184Z,27.83
2017-08-22T16:28:45.565Z,28.00
2017-08-22T16:30:56.973Z,28.01
2017-08-22T16:33:07.442Z,28.13
2017-08-22T16:35:13.746Z,28.08
2017-08-22T16:37:19.574Z,28.08
2017-08-22T16:39:25.652Z,27.91
2017-08-22T16:41:32.054Z,27.92
2017-08-22T16:43:37.840Z,27.92
2017-08-22T16:45:45.110Z,28.02
2017-08-22T16:47:53.454Z,27.87
2017-08-22T16:50:03.358Z,27.88
2017-08-22T16:52:09.694Z,27.63
2017-08-22T16:54:16.030Z,27.79
2017-08-22T16:56:21.853Z,27.78
2017-08-22T16:58:27.562Z,27.77
2017-08-22T17:00:33.449Z,27.67
2017-08-22T17:02:39.293Z,27.71
2017-08-22T17:04:46.876Z,27.45
2017-08-22T17:06:52.999Z,27.46
2017-08-22T17:09:02.136Z,27.48
2017-08-22T17:11:08.661Z,27.22
2017-08-22T17:13:14.476Z,27.61
2017-08-22T17:15:39.657Z,27.31
2017-08-22T17:17:48.079Z,27.08
2017-08-22T17:19:55.325Z,27.27
2017-08-22T17:22:05.328Z,27.42
2017-08-22T17:24:11.416Z,27.30
2017-08-22T17:26:17.611Z,27.14
2017-08-22T17:28:23.385Z,26.91
2017-08-22T17:30:29.731Z,26.84
2017-08-22T17:32:35.379Z,26.68
2017-08-22T17:34:41.125Z,26.49
2017-08-22T17:36:50.148Z,26.11
2017-08-22T17:38:58.880Z,26.25
2017-08-22T17:41:09.201Z,26.00
2017-08-22T17:43:15.569Z,26.26
2017-08-22T17:45:21.272Z,26.51
2017-08-22T17:47:28.135Z,25.83
2017-08-22T17:49:34.556Z,25.62
2017-08-22T17:51:40.652Z,25.89
2017-08-22T17:53:48.632Z,25.37
2017-08-22T17:55:56.603Z,25.40
2017-08-22T17:58:06.057Z,25.01
2017-08-22T18:00:12.922Z,24.77
2017-08-22T18:02:18.944Z,25.23
2017-08-22T18:04:24.892Z,24.64
2017-08-22T18:06:31.546Z,24.81
2017-08-22T18:08:37.603Z,24.56
2017-08-22T18:10:45.103Z,24.31
2017-08-22T18:12:53.377Z,24.55
2017-08-22T18:15:05.566Z,24.61
2017-08-22T18:17:11.938Z,24.07
2017-08-22T18:19:20.361Z,24.00
2017-08-22T18:21:28.336Z,23.68
2017-08-22T18:23:37.101Z,23.68
2017-08-22T18:25:43.217Z,23.66
2017-08-22T18:28:16.515Z,23.96
2017-08-22T18:30:22.609Z,23.86
2017-08-22T18:32:32.697Z,23.57
2017-08-22T18:34:44.882Z,23.54
2017-08-22T18:36:58.564Z,23.67
2017-08-22T18:39:10.600Z,23.84
2017-08-22T18:41:21.991Z,23.43
2017-08-22T18:43:35.578Z,23.33
2017-08-22T18:48:27.986Z,23.42
2017-08-22T18:50:41.763Z,23.36
2017-08-22T18:52:56.417Z,23.55
2017-08-22T18:55:16.136Z,23.59
2017-08-22T18:57:24.494Z,23.59
2017-08-22T18:59:36.971Z,23.50
2017-08-22T19:01:45.606Z,23.56
2017-08-22T19:04:00.036Z,23.38
2017-08-22T19:06:09.419Z,23.14
2017-08-22T19:08:16.077Z,23.09
2017-08-22T19:10:23.026Z,22.75
2017-08-22T19:12:31.302Z,22.78
2017-08-22T19:14:42.440Z,22.73
2017-08-22T19:16:55.203Z,22.56
2017-08-22T19:19:12.250Z,22.34
2017-08-22T19:21:21.777Z,22.16
2017-08-22T19:23:29.709Z,22.34
2017-08-22T19:25:39.208Z,22.24
2017-08-22T19:27:52.838Z,22.46
2017-08-22T19:30:02.863Z,22.66
2017-08-22T19:32:14.264Z,22.71
2017-08-22T19:34:24.379Z,22.67
2017-08-22T19:36:32.328Z,23.47
2017-08-22T19:38:40.890Z,23.91
2017-08-22T19:40:50.847Z,23.74
2017-08-22T19:42:59.684Z,24.01
2017-08-22T19:45:09.802Z,24.31
2017-08-22T19:47:16.579Z,24.29
2017-08-22T19:49:23.012Z,24.18
2017-08-22T19:51:30.916Z,24.16
2017-08-22T19:53:38.286Z,24.07
2017-08-22T19:55:48.138Z,24.20
2017-08-22T19:58:00.053Z,23.87
2017-08-22T20:00:08.683Z,23.77
2017-08-22T20:02:15.670Z,23.86
2017-08-22T20:04:22.169Z,23.67
2017-08-22T20:06:27.593Z,23.36
2017-08-22T20:08:33.793Z,23.94
2017-08-22T20:10:39.613Z,23.98
2017-08-22T20:12:48.397Z,24.46
2017-08-22T20:14:58.386Z,24.91
2017-08-22T20:17:09.358Z,24.60
2017-08-22T20:19:20.126Z,23.45
2017-08-22T20:21:28.739Z,23.93
2017-08-22T20:23:35.250Z,23.96
2017-08-22T20:25:41.960Z,24.15
2017-08-22T20:27:51.786Z,24.02
2017-08-22T20:30:06.944Z,23.87
2017-08-22T20:32:13.533Z,23.90
2017-08-22T20:34:19.806Z,24.16
2017-08-22T20:36:26.891Z,24.33
2017-08-22T20:38:34.137Z,24.09
2017-08-22T20:40:43.738Z,23.97
2017-08-22T20:42:53.131Z,24.39
2017-08-22T20:45:01.806Z,24.49
2017-08-22T20:47:09.675Z,24.47
2017-08-22T20:49:16.804Z,24.47
2017-08-22T20:51:23.188Z,24.46
2017-08-22T20:53:30.643Z,24.24
2017-08-22T20:55:37.914Z,24.27
2017-08-22T20:57:51.262Z,24.14
2017-08-22T20:59:59.852Z,24.23
2017-08-22T21:02:07.590Z,24.15
2017-08-22T21:04:15.736Z,24.47
2017-08-22T21:06:22.382Z,24.38
2017-08-22T21:08:40.000Z,23.86
2017-08-22T21:10:51.382Z,24.18
2017-08-22T21:12:59.656Z,24.46
2017-08-22T21:15:05.997Z,24.31
2017-08-22T21:17:11.640Z,23.65
2017-08-22T21:19:18.213Z,23.86
2017-08-22T21:21:24.835Z,24.18
2017-08-22T21:23:30.944Z,24.06
2017-08-22T21:25:38.476Z,24.09
2017-08-22T21:27:47.688Z,24.02
2017-08-22T21:29:57.999Z,24.09
2017-08-22T21:32:06.976Z,24.02
2017-08-22T21:34:16.985Z,24.16
2017-08-22T21:36:25.034Z,24.09
2017-08-22T21:38:33.191Z,24.23
2017-08-22T21:40:39.303Z,24.29
2017-08-22T21:42:48.052Z,24.26
2017-08-22T21:44:55.306Z,24.33
2017-08-22T21:47:02.757Z,24.35
2017-08-22T21:49:08.765Z,24.56
2017-08-22T21:51:16.237Z,24.32
2017-08-22T21:53:24.200Z,24.96
2017-08-22T21:55:30.996Z,24.43
2017-08-22T21:57:38.241Z,24.30
2017-08-22T21:59:52.448Z,24.26
2017-08-22T22:02:02.853Z,23.96
2017-08-22T22:04:17.284Z,24.96
2017-08-22T22:06:22.972Z,24.74
2017-08-22T22:08:29.875Z,25.31
2017-08-22T22:10:36.346Z,24.29
2017-08-22T22:12:43.216Z,22.97
2017-08-22T22:14:52.959Z,23.81
2017-08-22T22:17:02.923Z,23.68
2017-08-22T22:19:12.788Z,23.34
2017-08-22T22:21:20.580Z,23.66
2017-08-22T22:23:27.605Z,23.63
2017-08-22T22:25:33.771Z,24.08
2017-08-22T22:27:40.734Z,24.50
2017-08-22T22:29:51.013Z,24.51
2017-08-22T22:31:59.745Z,24.49
2017-08-22T22:34:05.895Z,24.81
2017-08-22T22:36:12.697Z,24.53
2017-08-22T22:38:19.278Z,24.40
2017-08-22T22:40:25.066Z,24.29
2017-08-22T22:42:31.731Z,24.14
2017-08-22T22:44:37.875Z,24.19
2017-08-22T22:46:47.685Z,24.10
2017-08-22T22:48:59.478Z,24.25
2017-08-22T22:51:05.310Z,24.32
2017-08-22T22:53:11.560Z,24.64
2017-08-22T22:55:18.288Z,25.01
2017-08-22T22:57:24.220Z,24.83
2017-08-22T22:59:29.951Z,25.05
2017-08-22T23:01:37.007Z,24.82
2017-08-22T23:04:07.648Z,24.43
2017-08-22T23:06:19.941Z,24.43
2017-08-22T23:13:13.292Z,24.79
2017-08-22T23:15:21.439Z,24.31
2017-08-22T23:17:28.525Z,24.41
2017-08-22T23:19:35.310Z,24.27
2017-08-22T23:21:41.773Z,24.24
2017-08-22T23:23:53.802Z,24.15
2017-08-22T23:26:01.017Z,24.20
2017-08-22T23:28:07.018Z,24.38
2017-08-22T23:30:13.536Z,24.32
2017-08-22T23:32:19.463Z,24.07
2017-08-22T23:34:25.918Z,24.13
2017-08-22T23:36:32.906Z,24.53
2017-08-22T23:38:39.210Z,24.50
2017-08-22T23:40:51.058Z,24.18
2017-08-22T23:43:04.485Z,23.31
2017-08-22T23:45:10.637Z,23.26
2017-08-22T23:47:16.891Z,23.45
2017-08-22T23:49:23.490Z,23.97
2017-08-22T23:51:32.665Z,24.16
2017-08-22T23:53:42.247Z,23.66
2017-08-22T23:55:53.305Z,23.75
2017-08-22T23:58:01.396Z,23.72
